Map Display - EGKK to LSZH
(last flight recorded 23-03-2019, 12:33 - Dale Moore)

Aircraft Weights    Units : Maximums
Passengers :   124  
Cargo : kg 3,800 kg
Suggested Fuel Load : kg 15,682 kg
 
     
 
Dry Operating : 27,448 kg    
Total Payload : 0 kg 15,643 kg
 
Take Off : 34,667 kg 58,105 kg
 
Expected Landing : 30,801 kg 46,720 kg

Christopher Manlow,  B73Q ,  G-BKYE,  .

Route Distance Previous
Flights
Average
Duration
Average
Fuel Flow
Average
Fuel Use
EGKK - Gatwick, London
LSZH - Zurich, Switzerland
407 nm 8 01:24 2,794 kg/h 3,866 kg

Current weather :-
2019/03/23 18:16
TAF EGKK 231700Z 2318/2424 08006KT 9999 SCT040 PROB30 2400/2407 8000
BECMG 2408/2411 32010KT
2019/03/23 21:37
TAF LSZH 232025Z 2321/2503 VRB03KT CAVOK TX17/2415Z TNM00/2405Z PROB30 2405/2408 2500 BCFG BKN003
BECMG 2413/2415 28007KT
BECMG 2417/2420 VRB03KT 9999 SCT040

Back to Virtual Airline